Wind From: 10-12-2017 19:04 Until: 11-12-2017 16:00 warning for: Wind Level: Orange info button

Power and phone distribution networks may be disrupted for relatively long periods., Roofs and chimneys can be damaged. , Tree branches may break. , Vehicles can be deported. , Traffic may be disrupted, particularly on secondary roads in forest areas. Limit your trips. , Limit your speed in highway driving, especially if you drive a vehicle or hitch sensitive to wind. , Do not go for walks in forests or along the coast., In town, be vigilant against possible falling objects., Do not work on roofs and do not touch any electrical line fallen on the ground., Store or secure sensitive objects to wind or likely to be damaged., Always install power generators outside buildings. 


Meteo18 Weather Cam more information Meteo18 Weather Cam


Thunder radar more information blitzortung!


Rain radar more information rain snow radar


Visit our other weather sites:

Template documentation
and downloads

And another site



Weather Underground History page Text

Daily Summary for January 13, 2017 Units:  English    Metric   Both
« Previous Day
Next Day »
Daily Weekly Monthly Yearly Custom
  High: Low: Average:
Temperature: 42.6 °F 32.7 °F 36.7 °F
Dew Point: 35.6 °F 30.2 °F 32.4 °F
Humidity: 96 % 74 % 84 %
Wind Speed: 24 mph 0 mph 7.9 mph
Wind Gust: 37 mph - -
Wind:- - West
Pressure: 30.1 in 29.7 in -
Precipitation: 0.03 in    
Historical Graphs
 
 
Tabular Data for January 13, 2017
Time Temperature Dew Point Pressure Wind Wind Speed Wind Gust Humidity Rainfall Rate (Hourly)
00:02 42.6 °F 35.6 °F 29.7 in WNW 22 mph 32 mph 76 % 0 in
00:12 42.4 °F 35.4 °F 29.7 in West 14 mph 30 mph 76 % 0 in
00:22 42.1 °F 35.1 °F 29.7 in West 19 mph 26 mph 76 % 0 in
00:27 41.7 °F 34.7 °F 29.7 in West 10 mph 29 mph 76 % 0 in
00:32 41.5 °F 34.2 °F 29.7 in WNW 10 mph 29 mph 75 % 0 in
00:42 41.2 °F 34.5 °F 29.7 in West 10 mph 33 mph 77 % 0 in
00:52 40.8 °F 33.8 °F 29.8 in WNW 11 mph 37 mph 76 % 0 in
01:02 40.5 °F 32.9 °F 29.8 in West 10 mph 28 mph 74 % 0 in
01:12 39.9 °F 32.7 °F 29.8 in West 14 mph 32 mph 75 % 0 in
01:22 39.7 °F 33.1 °F 29.8 in WNW 12 mph 23 mph 77 % 0 in
01:27 39.7 °F 33.4 °F 29.8 in WSW 9 mph 23 mph 78 % 0 in
01:37 39 °F 34.3 °F 29.8 in WNW 8 mph 21 mph 83 % 0 in
01:42 38.8 °F 34.2 °F 29.8 in West 8 mph 21 mph 83 % 0 in
01:52 38.7 °F 34.2 °F 29.8 in West 17 mph 27 mph 84 % 0 in
01:57 38.7 °F 34.2 °F 29.8 in West 8 mph 27 mph 84 % 0 in
02:02 38.7 °F 34.2 °F 29.8 in West 11 mph 27 mph 84 % 0 in
02:12 38.7 °F 33.6 °F 29.8 in WSW 9 mph 20 mph 82 % 0 in
02:17 38.7 °F 33.6 °F 29.8 in WSW 10 mph 24 mph 82 % 0 in
02:22 38.7 °F 33.6 °F 29.8 in WNW 8 mph 24 mph 82 % 0 in
02:32 38.3 °F 33.3 °F 29.8 in West 12 mph 21 mph 82 % 0 in
02:37 38.1 °F 33.1 °F 29.8 in WNW 14 mph 21 mph 82 % 0 in
02:42 38.1 °F 32.7 °F 29.8 in West 9 mph 19 mph 81 % 0 in
02:52 37.9 °F 32.9 °F 29.8 in West 18 mph 23 mph 82 % 0 in
02:57 37.9 °F 32.9 °F 29.8 in West 6 mph 23 mph 82 % 0 in
03:02 37.8 °F 32.7 °F 29.8 in West 6 mph 21 mph 82 % 0 in
03:07 37.8 °F 33.1 °F 29.8 in West 10 mph 21 mph 83 % 0 in
03:12 37.8 °F 33.1 °F 29.8 in West 12 mph 17 mph 83 % 0 in
03:17 37.8 °F 33.1 °F 29.8 in WSW 9 mph 17 mph 83 % 0 in
03:22 37.8 °F 32.7 °F 29.8 in WSW 9 mph 21 mph 82 % 0 in
03:27 37.6 °F 32.5 °F 29.8 in West 13 mph 21 mph 82 % 0 in
03:32 37.6 °F 32.5 °F 29.8 in West 13 mph 21 mph 82 % 0 in
03:37 37.6 °F 32.4 °F 29.8 in WSW 7 mph 22 mph 81 % 0 in
03:42 37.2 °F 31.6 °F 29.8 in West 13 mph 22 mph 80 % 0 in
03:47 37.2 °F 32 °F 29.8 in WNW 7 mph 22 mph 81 % 0 in
03:52 36.9 °F 31.6 °F 29.8 in WSW 11 mph 18 mph 81 % 0 in
04:02 36.7 °F 31.6 °F 29.8 in WNW 9 mph 18 mph 82 % 0 in
04:12 36.7 °F 32 °F 29.8 in WNW 17 mph 19 mph 83 % 0 in
04:17 36.3 °F 31.6 °F 29.8 in WNW 8 mph 19 mph 83 % 0 in
04:22 36.1 °F 31.8 °F 29.8 in West 16 mph 19 mph 84 % 0 in
04:32 36.1 °F 32 °F 29.8 in WSW 6 mph 22 mph 85 % 0 in
04:37 36 °F 31.8 °F 29.8 in West 24 mph 24 mph 85 % 0 in
04:42 36 °F 32.2 °F 29.8 in West 6 mph 26 mph 86 % 0 in
04:47 35.8 °F 31.6 °F 29.8 in WNW 7 mph 26 mph 85 % 0 in
04:52 35.6 °F 31.5 °F 29.8 in West 8 mph 26 mph 85 % 0 in
04:57 35.6 °F 31.5 °F 29.8 in WSW 17 mph 26 mph 85 % 0 in
05:02 35.4 °F 31.3 °F 29.8 in West 10 mph 21 mph 85 % 0 in
05:07 35.4 °F 31.3 °F 29.8 in West 12 mph 21 mph 85 % 0 in
05:12 35.4 °F 31.6 °F 29.8 in WNW 10 mph 19 mph 86 % 0 in
05:17 35.4 °F 31.6 °F 29.8 in West 4 mph 19 mph 86 % 0 in
05:22 35.6 °F 31.8 °F 29.8 in WNW 11 mph 19 mph 86 % 0 in
05:32 35.4 °F 31.6 °F 29.8 in WNW 11 mph 20 mph 86 % 0 in
05:37 35.4 °F 31.3 °F 29.8 in WNW 6 mph 20 mph 85 % 0 in
05:42 35.4 °F 31.3 °F 29.8 in West 8 mph 18 mph 85 % 0 in
05:47 35.4 °F 31.6 °F 29.8 in West 8 mph 18 mph 86 % 0 in
05:52 35.4 °F 31.3 °F 29.8 in WSW 10 mph 18 mph 85 % 0 in
05:57 35.4 °F 31.3 °F 29.8 in West 5 mph 18 mph 85 % 0 in
06:02 35.4 °F 31.3 °F 29.8 in West 11 mph 18 mph 85 % 0 in
06:07 35.6 °F 31.5 °F 29.8 in WSW 12 mph 19 mph 85 % 0 in
06:12 35.6 °F 31.5 °F 29.8 in West 8 mph 19 mph 85 % 0 in
06:17 35.4 °F 31.3 °F 29.8 in West 8 mph 21 mph 85 % 0 in
06:22 35.2 °F 31.5 °F 29.8 in WSW 12 mph 21 mph 86 % 0 in
06:27 35.2 °F 31.5 °F 29.8 in WSW 8 mph 21 mph 86 % 0 in
06:32 35.2 °F 31.5 °F 29.8 in West 12 mph 14 mph 86 % 0 in
06:37 35.2 °F 31.8 °F 29.8 in West 7 mph 14 mph 87 % 0 in
06:42 35.2 °F 31.8 °F 29.8 in WNW 6 mph 14 mph 87 % 0 in
06:47 35.2 °F 31.8 °F 29.8 in West 15 mph 15 mph 87 % 0 in
06:57 35.1 °F 31.6 °F 29.8 in WSW 9 mph 18 mph 87 % 0 in
07:02 34.9 °F 31.5 °F 29.8 in WSW 11 mph 18 mph 87 % 0 in
07:12 34.9 °F 31.6 °F 29.8 in West 7 mph 15 mph 88 % 0 in
07:17 34.7 °F 31.5 °F 29.9 in SW 12 mph 15 mph 88 % 0 in
07:22 34.7 °F 31.5 °F 29.9 in West 5 mph 15 mph 88 % 0 in
07:27 34.5 °F 31.6 °F 29.9 in WSW 11 mph 15 mph 89 % 0 in
07:32 34.3 °F 31.6 °F 29.9 in West 9 mph 15 mph 90 % 0 in
07:37 34.2 °F 31.8 °F 29.9 in WSW 9 mph 15 mph 91 % 0 in
07:42 34 °F 31.6 °F 29.9 in WSW 7 mph 15 mph 91 % 0 in
07:47 34 °F 31.8 °F 29.9 in West 11 mph 13 mph 92 % 0 in
07:52 34 °F 31.8 °F 29.9 in WSW 6 mph 12 mph 92 % 0 in
07:57 34.2 °F 31.8 °F 29.9 in WSW 6 mph 13 mph 91 % 0 in
08:02 34.2 °F 31.8 °F 29.9 in WSW 7 mph 13 mph 91 % 0 in
08:07 34.2 °F 31.8 °F 29.9 in WSW 4 mph 13 mph 91 % 0 in
08:12 34.2 °F 31.8 °F 29.9 in West 8 mph 14 mph 91 % 0 in
08:17 34 °F 31.8 °F 29.9 in WSW 6 mph 14 mph 92 % 0 in
08:22 33.4 °F 31.6 °F 29.9 in WSW 4 mph 14 mph 93 % 0 in
08:32 33.1 °F 31.5 °F 29.9 in SSW 1 mph 13 mph 94 % 0 in
08:37 32.9 °F 31.6 °F 29.9 in West 3 mph 12 mph 95 % 0 in
08:42 32.7 °F 31.5 °F 29.9 in WSW 5 mph 10 mph 95 % 0 in
08:52 32.7 °F 31.5 °F 29.9 in WSW 6 mph 10 mph 95 % 0 in
08:57 32.7 °F 31.5 °F 29.9 in WSW 3 mph 12 mph 95 % 0 in
09:02 32.7 °F 31.6 °F 29.9 in West 3 mph 12 mph 96 % 0 in
09:07 32.7 °F 31.6 °F 29.9 in West 5 mph 10 mph 96 % 0 in
09:12 32.7 °F 31.6 °F 29.9 in West 4 mph 11 mph 96 % 0 in
09:17 32.7 °F 31.6 °F 29.9 in WSW 5 mph 11 mph 96 % 0 in
09:22 32.9 °F 31.8 °F 29.9 in West 6 mph 11 mph 96 % 0 in
09:27 33.1 °F 31.8 °F 29.9 in West 6 mph 11 mph 95 % 0 in
09:32 33.1 °F 31.8 °F 29.9 in WNW 6 mph 11 mph 95 % 0 in
09:37 33.1 °F 31.8 °F 29.9 in SW 2 mph 10 mph 95 % 0 in
09:42 33.3 °F 32 °F 29.9 in West 4 mph 10 mph 95 % 0 in
09:47 33.3 °F 32 °F 29.9 in WSW 6 mph 10 mph 95 % 0 in
09:52 33.3 °F 32 °F 29.9 in WNW 2 mph 9 mph 95 % 0 in
09:57 33.4 °F 32.2 °F 29.9 in SW 1 mph 9 mph 95 % 0 in
10:02 33.4 °F 31.8 °F 29.9 in West 2 mph 7 mph 94 % 0 in
10:12 33.6 °F 32 °F 29.9 in Calm   6 mph 94 % 0 in
10:17 33.8 °F 32.2 °F 29.9 in Calm   6 mph 94 % 0 in
10:22 34 °F 32.4 °F 29.9 in SW 5 mph 5 mph 94 % 0 in
10:32 34.2 °F 32.4 °F 29.9 in WNW 7 mph 9 mph 93 % 0 in
10:37 34.3 °F 32.5 °F 29.9 in WSW 2 mph 9 mph 93 % 0.01 in
10:42 34.3 °F 32.5 °F 29.9 in West 6 mph 12 mph 93 % 0.01 in
10:52 34.3 °F 32.5 °F 29.9 in WNW 3 mph 10 mph 93 % 0.01 in
10:57 34.3 °F 32.5 °F 29.9 in West 9 mph 10 mph 93 % 0.01 in
11:02 34.3 °F 32.5 °F 29.9 in WNW 5 mph 14 mph 93 % 0.01 in
11:07 34.5 °F 32.7 °F 29.9 in WSW 4 mph 17 mph 93 % 0.02 in
11:12 34.5 °F 32.7 °F 29.9 in WNW 3 mph 17 mph 93 % 0.02 in
11:17 34.5 °F 32.7 °F 29.9 in WNW 8 mph 17 mph 93 % 0.02 in
11:22 34.7 °F 32.5 °F 29.9 in West 4 mph 12 mph 92 % 0.02 in
11:32 34.9 °F 32.7 °F 29.9 in WSW 5 mph 12 mph 92 % 0.01 in
11:42 35.1 °F 32.9 °F 29.9 in WNW 3 mph 16 mph 92 % 0.01 in
11:52 35.1 °F 32.9 °F 29.9 in NW 6 mph 13 mph 92 % 0.01 in
11:57 35.2 °F 33.1 °F 29.9 in WNW 9 mph 13 mph 92 % 0.01 in
12:02 35.4 °F 33.3 °F 29.9 in NW 4 mph 13 mph 92 % 0 in
12:12 35.8 °F 33.6 °F 29.9 in NW 2 mph 14 mph 92 % 0 in
12:17 35.8 °F 33.4 °F 29.9 in WNW 10 mph 14 mph 91 % 0 in
12:22 35.8 °F 33.6 °F 29.9 in WNW 10 mph 14 mph 92 % 0 in
12:32 35.8 °F 33.6 °F 29.9 in NNW 5 mph 15 mph 92 % 0 in
12:37 36 °F 33.8 °F 29.9 in WNW 10 mph 18 mph 92 % 0 in
12:42 36 °F 33.6 °F 29.9 in WNW 7 mph 18 mph 91 % 0 in
12:47 36.1 °F 33.8 °F 29.9 in WNW 10 mph 18 mph 91 % 0 in
12:57 36.3 °F 33.6 °F 29.9 in NW 10 mph 19 mph 90 % 0 in
13:02 36.5 °F 33.8 °F 29.9 in North 6 mph 19 mph 90 % 0 in
13:07 36.5 °F 33.6 °F 29.9 in West 11 mph 17 mph 89 % 0 in
13:12 36.9 °F 34 °F 29.9 in SW 14 mph 17 mph 89 % 0 in
13:17 37.4 °F 34.5 °F 29.9 in NW 9 mph 17 mph 89 % 0 in
13:22 37.9 °F 35.1 °F 29.9 in NW 7 mph 14 mph 89 % 0 in
13:27 38.1 °F 34.3 °F 29.9 in NW 16 mph 16 mph 86 % 0 in
13:32 38.5 °F 34.3 °F 29.9 in NW 5 mph 19 mph 85 % 0 in
13:37 38.8 °F 34.7 °F 29.9 in West 9 mph 19 mph 85 % 0 in
13:42 38.8 °F 34.2 °F 29.9 in NNW 9 mph 21 mph 83 % 0 in
13:52 38.7 °F 34 °F 29.9 in NW 7 mph 22 mph 83 % 0 in
13:57 38.8 °F 33.4 °F 29.9 in NW 8 mph 22 mph 81 % 0 in
14:02 38.8 °F 33.3 °F 29.9 in WNW 9 mph 23 mph 80 % 0 in
14:07 39.2 °F 33.6 °F 29.9 in NW 3 mph 23 mph 80 % 0 in
14:12 39.4 °F 33.1 °F 29.9 in WNW 11 mph 23 mph 78 % 0 in
14:17 39.4 °F 33.8 °F 29.9 in WNW 10 mph 21 mph 80 % 0 in
14:22 39.6 °F 33.3 °F 29.9 in NNE 6 mph 17 mph 78 % 0 in
14:27 39.4 °F 33.1 °F 29.9 in NNW 14 mph 17 mph 78 % 0 in
14:32 39.6 °F 33.3 °F 29.9 in WNW 20 mph 20 mph 78 % 0.01 in
14:37 39.4 °F 33.4 °F 29.9 in WNW 5 mph 20 mph 79 % 0.01 in
14:42 39.6 °F 33.3 °F 29.9 in NNW 9 mph 20 mph 78 % 0.01 in
14:47 39.6 °F 33.3 °F 29.9 in WNW 8 mph 20 mph 78 % 0.01 in
14:52 39.4 °F 32.7 °F 29.9 in WNW 7 mph 15 mph 77 % 0.01 in
14:57 37.9 °F 33.6 °F 29.9 in NW 15 mph 20 mph 84 % 0.01 in
15:02 36.1 °F 33.4 °F 29.9 in WNW 15 mph 35 mph 90 % 0.01 in
15:07 35.8 °F 33.4 °F 29.9 in WNW 7 mph 35 mph 91 % 0.01 in
15:12 35.8 °F 33.4 °F 29.9 in West 10 mph 23 mph 91 % 0.01 in
15:17 35.8 °F 33.4 °F 29.9 in West 3 mph 18 mph 91 % 0.01 in
15:22 35.6 °F 33.3 °F 29.9 in West 10 mph 18 mph 91 % 0.01 in
15:27 35.1 °F 32.9 °F 30 in WNW 4 mph 20 mph 92 % 0.02 in
15:32 34.9 °F 32.7 °F 30 in West 6 mph 20 mph 92 % 0.01 in
15:37 34.9 °F 33.1 °F 30 in WNW 5 mph 20 mph 93 % 0.01 in
15:42 35.4 °F 33.3 °F 30 in WNW 4 mph 11 mph 92 % 0.01 in
15:47 36.1 °F 33.4 °F 30 in West 2 mph 12 mph 90 % 0.01 in
15:52 36.5 °F 33.6 °F 30 in WNW 5 mph 12 mph 89 % 0.01 in
15:57 36.9 °F 33.4 °F 30 in WNW 8 mph 12 mph 87 % 0.01 in
16:07 37.6 °F 33.4 °F 30 in West 7 mph 12 mph 85 % 0.01 in
16:12 37.6 °F 33.3 °F 30 in WNW 11 mph 14 mph 84 % 0.01 in
16:17 37.6 °F 32.9 °F 30 in WNW 9 mph 15 mph 83 % 0.01 in
16:22 37.8 °F 32.7 °F 30 in West 6 mph 15 mph 82 % 0.01 in
16:32 37.8 °F 31.8 °F 30 in WNW 12 mph 17 mph 79 % 0 in
16:37 37.9 °F 31.6 °F 30 in SW 15 mph 17 mph 78 % 0 in
16:42 37.9 °F 31.6 °F 30 in NNW 7 mph 18 mph 78 % 0 in
16:52 37.9 °F 31.5 °F 30 in WNW 2 mph 19 mph 77 % 0 in
16:57 37.8 °F 31.3 °F 30 in WNW 7 mph 19 mph 77 % 0 in
17:02 37.6 °F 31.3 °F 30 in WNW 9 mph 18 mph 78 % 0 in
17:07 37.4 °F 31.1 °F 30 in WNW 7 mph 18 mph 78 % 0 in
17:12 37.2 °F 30.9 °F 30 in WNW 9 mph 17 mph 78 % 0 in
17:17 36.9 °F 30.9 °F 30 in WNW 8 mph 17 mph 79 % 0 in
17:22 36.7 °F 31.1 °F 30 in WNW 5 mph 17 mph 80 % 0 in
17:32 36.1 °F 30.9 °F 30 in WNW 8 mph 12 mph 81 % 0 in
17:37 36.1 °F 30.9 °F 30 in WNW 8 mph 13 mph 81 % 0 in
17:42 36.3 °F 31.1 °F 30 in NW 8 mph 15 mph 81 % 0 in
17:52 36.3 °F 31.1 °F 30 in WSW 6 mph 18 mph 81 % 0 in
17:57 36.5 °F 30.9 °F 30 in WSW 6 mph 18 mph 80 % 0 in
18:02 36.5 °F 30.9 °F 30 in West 5 mph 18 mph 80 % 0 in
18:07 36.7 °F 30.7 °F 30 in WNW 9 mph 15 mph 79 % 0 in
18:12 36.9 °F 30.9 °F 30 in WNW 8 mph 17 mph 79 % 0 in
18:17 37 °F 30.7 °F 30 in WNW 1 mph 17 mph 78 % 0 in
18:22 37 °F 30.7 °F 30 in NW 4 mph 17 mph 78 % 0 in
18:27 37 °F 30.6 °F 30 in NW 8 mph 16 mph 77 % 0 in
18:32 37.2 °F 30.7 °F 30 in WNW 9 mph 17 mph 77 % 0 in
18:37 37.2 °F 30.4 °F 30 in WNW 7 mph 17 mph 76 % 0 in
18:42 37.4 °F 30.6 °F 30 in WNW 8 mph 17 mph 76 % 0 in
18:47 37.6 °F 30.4 °F 30 in WSW 12 mph 14 mph 75 % 0 in
18:52 37.8 °F 30.6 °F 30 in West 5 mph 16 mph 75 % 0 in
18:57 37.8 °F 30.2 °F 30 in WNW 9 mph 16 mph 74 % 0 in
19:02 37.8 °F 30.2 °F 30 in West 7 mph 16 mph 74 % 0 in
19:07 37.9 °F 30.4 °F 30 in West 6 mph 14 mph 74 % 0 in
19:12 37.9 °F 30.4 °F 30 in WSW 10 mph 15 mph 74 % 0 in
19:17 38.1 °F 30.6 °F 30 in WNW 7 mph 16 mph 74 % 0 in
19:22 38.1 °F 30.9 °F 30 in West 10 mph 21 mph 75 % 0 in
19:27 38.1 °F 30.9 °F 30 in West 9 mph 21 mph 75 % 0 in
19:32 37.9 °F 31.1 °F 30 in West 12 mph 21 mph 76 % 0 in
19:37 37.9 °F 31.1 °F 30 in West 10 mph 21 mph 76 % 0 in
19:42 37.9 °F 31.1 °F 30 in WNW 8 mph 21 mph 76 % 0 in
19:47 37.9 °F 31.1 °F 30 in West 11 mph 18 mph 76 % 0 in
19:52 37.9 °F 31.1 °F 30 in WNW 17 mph 18 mph 76 % 0 in
19:57 37.9 °F 31.5 °F 30 in WSW 10 mph 22 mph 77 % 0 in
20:02 37.8 °F 31.5 °F 30 in West 13 mph 22 mph 78 % 0 in
20:12 37.4 °F 32.2 °F 30 in West 12 mph 20 mph 81 % 0 in
20:17 37.2 °F 32 °F 30 in West 10 mph 19 mph 81 % 0 in
20:22 37.2 °F 32 °F 30 in WSW 11 mph 18 mph 81 % 0 in
20:27 37.2 °F 32 °F 30 in WSW 12 mph 18 mph 81 % 0 in
20:32 37.2 °F 32.2 °F 30 in West 7 mph 19 mph 82 % 0 in
20:37 37 °F 32 °F 30 in WNW 7 mph 19 mph 82 % 0 in
20:42 37 °F 32.4 °F 30 in NNW 8 mph 19 mph 83 % 0 in
20:47 36.9 °F 32.2 °F 30 in West 9 mph 19 mph 83 % 0 in
20:52 36.9 °F 32.2 °F 30 in West 6 mph 19 mph 83 % 0 in
20:57 36.9 °F 32.2 °F 30 in West 9 mph 13 mph 83 % 0 in
21:02 37 °F 32.4 °F 30 in West 6 mph 13 mph 83 % 0 in
21:12 37 °F 32.4 °F 30 in WNW 4 mph 13 mph 83 % 0 in
21:17 37.2 °F 32.2 °F 30 in WNW 9 mph 15 mph 82 % 0 in
21:22 37.4 °F 32.2 °F 30 in WNW 11 mph 15 mph 81 % 0 in
21:32 37.6 °F 32.4 °F 30 in WNW 4 mph 15 mph 81 % 0 in
21:37 37.6 °F 32.4 °F 30 in West 3 mph 13 mph 81 % 0 in
21:42 37.8 °F 32.2 °F 30 in WNW 8 mph 11 mph 80 % 0 in
21:47 37.9 °F 32 °F 30 in WNW 7 mph 11 mph 79 % 0 in
21:52 37.9 °F 32.4 °F 30 in WNW 7 mph 12 mph 80 % 0 in
21:57 37.9 °F 32.4 °F 30 in West 5 mph 12 mph 80 % 0 in
22:02 37.9 °F 32 °F 30 in West 6 mph 12 mph 79 % 0 in
22:12 37.9 °F 32 °F 30 in WSW 4 mph 10 mph 79 % 0 in
22:17 37.9 °F 32.4 °F 30 in WNW 7 mph 11 mph 80 % 0 in
22:22 37.9 °F 32 °F 30 in WSW 4 mph 11 mph 79 % 0 in
22:32 37.9 °F 32 °F 30 in West 3 mph 11 mph 79 % 0 in
22:37 37.9 °F 32.4 °F 30 in SW 8 mph 11 mph 80 % 0 in
22:42 37.9 °F 32.4 °F 30 in WSW 3 mph 11 mph 80 % 0 in
22:47 37.8 °F 32.2 °F 30 in West 3 mph 10 mph 80 % 0 in
22:52 37.8 °F 32.2 °F 30 in WNW 4 mph 10 mph 80 % 0 in
22:57 37.6 °F 32.4 °F 30 in North 1 mph 10 mph 81 % 0 in
23:02 37.6 °F 32 °F 30 in West 3 mph 7 mph 80 % 0 in
23:12 37.8 °F 32.2 °F 30 in WSW 2 mph 6 mph 80 % 0 in
23:17 37.8 °F 32.5 °F 30 in West 1 mph 8 mph 81 % 0 in
23:22 37.8 °F 32.2 °F 30 in West 2 mph 8 mph 80 % 0 in
23:27 37.8 °F 32.2 °F 30 in WSW 5 mph 8 mph 80 % 0 in
23:32 37.8 °F 32.2 °F 30 in West 7 mph 10 mph 80 % 0 in
23:37 37.8 °F 32.2 °F 30 in West 6 mph 10 mph 80 % 0 in
23:42 37.9 °F 32.4 °F 30 in WNW 2 mph 15 mph 80 % 0 in
23:47 37.9 °F 32.4 °F 30 in West 8 mph 15 mph 80 % 0 in
23:52 37.9 °F 32.4 °F 30.1 in WNW 5 mph 15 mph 80 % 0 in
23:57 37.8 °F 32.2 °F 30.1 in West 3 mph 15 mph 80 % 0 in
Meteo18
Compliments of Weather Underground - 4 mb

Script developed by  Jim McMurry - jmcmurry@mwt.net Adapted for the template by  Wim van der Kuil - Leuven-Template.eu

You find our weather info also at:

European Weather Network

Weather Underground

Equipment we use:

Weather-station
Davis Vue

Weather-program
Meteohub

Weather-server
Raspberry PI 2 B+

Provider
1 and 1

Davis Vue

Meteohub

Raspberry PI 2 B+

1 and 1